Airfield :
LOGIN :

Register | Disclaimer

   EN    FR    IT 

 










Legend :    VFR   Marginal VFR   IFR   Intensive IFR   Very Intensive IFR
Visi :
Ceiling :
>= 8 km
>= 3000ft
5 to 8 km
1000 to 3000 ft
1500m to 5 km
500 to 1000 ft
800 to 1500m
200 to 500 ft
< 800m
< 200 ft
Symbols :   Thunderstorms  Fog  Heavy snow  Heavy precipitations  Wind > 20 kt
SIGMETs :     Misc.  Thunderstorms  Icing  Turbulence  Mountain Waves  Volcanic Ashes






- Airport Elevation : 36 ft
- IATA code : LTQ


LFAT - Le Touquet

CURRENT METAR :
  • 271430Z AUTO 33028KT 9999 BKN019 BKN024 OVC030 06/02 Q1001 BECMG 33020G35KT

EXPIRED METARs :
  • 271400Z AUTO 33028KT 9999 BKN017 OVC023 05/02 Q1000 BECMG 33020G35KT
  • 271330Z AUTO 34029KT 9999 BKN015 OVC021 05/03 Q0998 BECMG 33020G35KT
  • 271300Z AUTO 34022KT 9999 BKN011 OVC017 05/03 Q0997 BECMG 33020G35KT BKN020
  • 271230Z AUTO 34019KT 9999 OVC011 05/03 Q0996 BECMG 33020G35KT BKN020
  • 271200Z AUTO 35016KT 330V030 9999 OVC008 04/02 Q0995 BECMG 33020G35KT BKN020

TAF TAF LFAT
Valid from the 27 at 15:00 until the 28 at 00:00 UTC


271400Z 2715/2724 33020G35KT 9999 BKN020
BECMG 2717/2720 30015G25KT
BECMG 2720/2723 27012KT
ATIS : +33 3 21 06 62 84



MET'MAP, your aeronautical weather chart ! - Copyright ORBIFLY December 2007 - Disclaimer

ORBIFLY MET'MAP TEAM :

Programming & Development : Alexandra Zaïnal
Concept & original design : Baudouin d'Aumeries
Assistance for programming : Marc-Olivier Méhu
Technical & hardware support : Manuel Goepfert

Contact : metmap@orbifly.com




SOURCES & CREDITS :

   NOAA